Time;durP1;ratioP1;P1;durP2;ratioP2;P2;SDS_P1;SDS_P2;PMS_P1;PMS_P2;Temp;Humidity;BMP_temperature;BMP_pressure;BME280_temperature;BME280_humidity;BME280_pressure;Samples;Min_cycle;Max_cycle;Signal;HPM_P1;HPM_P2
2021/05/29 00:01:05;;;;;;;0.80;0.80;;;8.00;99.90;;;8.27;100.00;36812.81;5118847;27;20804;-73
2021/05/29 00:03:34;;;;;;;0.70;0.60;;;7.90;99.90;;;8.19;100.00;35706.38;5119319;27;20451;-73
2021/05/29 00:06:02;;;;;;;0.70;0.70;;;7.90;99.90;;;8.18;100.00;34622.16;5115634;27;20429;-73
2021/05/29 00:08:30;;;;;;;0.70;0.60;;;7.90;99.90;;;8.17;100.00;33091.97;5134698;27;20451;-73
2021/05/29 00:10:59;;;;;;;0.80;0.70;;;7.90;99.90;;;8.14;100.00;31373.78;5121036;27;20510;-73
2021/05/29 00:13:29;;;;;;;0.70;0.60;;;7.80;99.90;;;8.03;100.00;29631.94;5114135;28;20402;-73
2021/05/29 00:15:58;;;;;;;0.70;0.60;;;7.70;99.90;;;8.00;100.00;27928.75;5112702;28;20447;-73
2021/05/29 00:18:26;;;;;;;0.70;0.60;;;7.70;99.90;;;7.96;100.00;26120.09;5114079;28;20546;-73
2021/05/29 00:20:55;;;;;;;0.70;0.60;;;7.70;99.90;;;7.93;100.00;23958.69;5127110;27;20527;-73
2021/05/29 00:23:23;;;;;;;0.70;0.60;;;7.60;99.90;;;7.84;100.00;22119.94;5132930;27;20547;-73
2021/05/29 00:25:52;;;;;;;0.80;0.60;;;7.50;99.90;;;7.79;100.00;20198.53;5133481;27;20436;-73
2021/05/29 00:28:19;;;;;;;0.70;0.60;;;7.50;99.90;;;7.74;100.00;18248.63;5134620;27;20452;-73
2021/05/29 00:30:47;;;;;;;0.70;0.60;;;7.50;99.90;;;7.77;100.00;16234.22;5112195;28;20490;-73
2021/05/29 00:33:14;;;;;;;0.70;0.60;;;7.40;99.90;;;7.71;100.00;13911.06;5111471;28;20774;-73
2021/05/29 00:35:43;;;;;;;0.70;0.60;;;7.40;99.90;;;7.68;100.00;11824.75;5113951;27;20465;-74
2021/05/29 00:38:11;;;;;;;0.70;0.60;;;7.40;99.90;;;7.68;100.00;9614.81;5128822;28;20492;-73
2021/05/29 00:40:39;;;;;;;0.70;0.60;;;7.30;99.90;;;7.71;100.00;7547.78;5132847;28;20436;-73
2021/05/29 00:43:07;;;;;;;0.70;0.60;;;7.30;99.90;;;7.71;100.00;5488.81;5132909;28;20424;-73
2021/05/29 00:45:35;;;;;;;0.70;0.60;;;7.40;99.90;;;7.70;100.00;3611.94;5132725;28;20431;-73
2021/05/29 00:48:04;;;;;;;0.70;0.60;;;7.30;99.90;;;7.65;100.00;1412.09;5130584;28;20434;-73
2021/05/29 00:50:33;;;;;;;0.70;0.60;;;7.30;99.90;;;7.73;100.00;-667.41;5122019;28;20433;-73
2021/05/29 00:53:01;;;;;;;1.20;1.10;;;7.30;99.90;;;7.76;100.00;-2400.25;5131957;28;20476;-73
2021/05/29 00:55:30;;;;;;;0.70;0.60;;;7.40;99.90;;;7.70;100.00;-4159.88;5133865;28;20431;-73
2021/05/29 00:57:57;;;;;;;0.70;0.60;;;7.40;99.90;;;7.67;100.00;-5517.59;5134363;28;20409;-73
2021/05/29 01:00:25;;;;;;;0.70;0.60;;;7.30;99.90;;;7.61;100.00;-7197.41;5129539;28;20945;-73
2021/05/29 01:02:53;;;;;;;0.70;0.60;;;7.20;99.90;;;7.59;100.00;-8871.31;5112536;28;20433;-74
2021/05/29 01:05:22;;;;;;;0.70;0.60;;;7.20;99.90;;;7.55;100.00;-10316.53;5112130;28;20912;-73
2021/05/29 01:07:51;;;;;;;0.70;0.60;;;7.20;99.90;;;7.52;100.00;-11701.03;5112511;28;20428;-73
2021/05/29 01:10:22;;;;;;;0.70;0.60;;;7.10;99.90;;;7.53;100.00;-13013.00;5123730;28;20446;-73
2021/05/29 01:12:53;;;;;;;0.70;0.60;;;7.10;99.90;;;7.44;100.00;-14407.66;5112300;28;20504;-73
2021/05/29 01:15:22;;;;;;;0.70;0.60;;;7.10;99.90;;;7.39;100.00;-15470.25;5113331;28;20766;-73
2021/05/29 01:17:49;;;;;;;0.70;0.60;;;7.00;99.90;;;7.35;100.00;-16260.50;5125816;28;20471;-73
2021/05/29 01:20:18;;;;;;;0.70;0.60;;;7.00;99.90;;;7.28;100.00;-17159.44;5115002;28;20440;-73
2021/05/29 01:22:49;;;;;;;0.70;0.60;;;6.90;99.90;;;7.33;100.00;-17883.75;5132446;28;20513;-73
2021/05/29 01:25:23;;;;;;;0.70;0.60;;;6.90;99.90;;;7.34;100.00;-18612.06;5115733;28;20446;-73
2021/05/29 01:28:13;;;;;;;0.70;0.60;;;6.90;99.90;;;7.33;100.00;-19284.88;5131560;28;20444;-73
2021/05/29 01:30:47;;;;;;;0.70;0.60;;;7.00;99.90;;;7.31;100.00;-19837.66;5129073;28;20449;-73
2021/05/29 01:33:19;;;;;;;0.70;0.50;;;6.90;99.90;;;7.25;100.00;-20392.00;5113772;28;20416;-73
2021/05/29 01:35:50;;;;;;;0.70;0.70;;;6.90;99.90;;;7.25;100.00;-20748.13;5133299;28;20926;-73
2021/05/29 01:38:21;;;;;;;0.70;0.60;;;6.90;99.90;;;7.24;100.00;-20879.38;5113877;28;20453;-73
2021/05/29 01:40:50;;;;;;;0.70;0.60;;;6.80;99.90;;;7.20;100.00;-20878.13;5127638;28;20452;-73
2021/05/29 01:43:18;;;;;;;0.70;0.60;;;6.80;99.90;;;7.17;100.00;-20877.28;5129145;28;20426;-73
2021/05/29 01:45:47;;;;;;;0.70;0.60;;;6.80;99.90;;;7.16;100.00;-20877.03;5115619;28;20429;-73
2021/05/29 01:48:18;;;;;;;0.70;0.60;;;6.80;99.90;;;7.09;100.00;-20875.06;5131157;27;20489;-73
2021/05/29 01:50:46;;;;;;;0.70;0.60;;;6.70;99.90;;;7.09;100.00;-20875.22;5115364;28;20416;-73
2021/05/29 01:53:15;;;;;;;0.70;0.60;;;6.80;99.90;;;7.05;100.00;-20874.09;5115050;28;20471;-73
2021/05/29 01:55:47;;;;;;;0.70;0.60;;;6.70;99.90;;;7.02;100.00;-20873.41;5115481;28;20792;-72
2021/05/29 01:58:17;;;;;;;0.70;0.60;;;6.60;99.90;;;7.02;100.00;-20873.28;5134564;27;20431;-72
2021/05/29 02:00:45;;;;;;;0.70;0.60;;;6.60;99.90;;;6.99;100.00;-20872.56;5128604;27;20432;-72
2021/05/29 02:03:33;;;;;;;0.70;0.60;;;6.60;99.90;;;7.04;100.00;-20873.81;5131318;27;20437;-73
2021/05/29 02:06:02;;;;;;;0.70;0.60;;;6.60;99.90;;;6.99;100.00;-20872.44;5135827;27;20444;-73
2021/05/29 02:08:30;;;;;;;1.70;1.20;;;6.60;99.90;;;6.93;100.00;-20870.78;5136496;27;20463;-72
2021/05/29 02:11:02;;;;;;;0.70;0.60;;;6.50;99.90;;;6.90;100.00;-20869.94;5135735;27;20428;-72
2021/05/29 02:13:33;;;;;;;0.70;0.60;;;6.50;99.90;;;6.94;100.00;-20871.06;5122391;27;20491;-72
2021/05/29 02:16:03;;;;;;;0.70;0.67;;;6.60;99.90;;;6.97;100.00;-20871.88;5110266;27;20455;-73
2021/05/29 02:18:31;;;;;;;0.70;0.60;;;6.60;99.90;;;6.98;100.00;-20872.16;5134016;27;20452;-72
2021/05/29 02:21:02;;;;;;;0.70;0.70;;;6.50;99.90;;;6.97;100.00;-20871.88;5116264;28;20806;-73
2021/05/29 02:23:34;;;;;;;0.70;0.60;;;6.50;99.90;;;6.94;100.00;-20871.06;5132049;27;20463;-72
2021/05/29 02:26:07;;;;;;;0.70;0.60;;;6.50;99.90;;;6.96;100.00;-20871.59;5114941;28;20541;-72
2021/05/29 02:28:36;;;;;;;0.70;0.67;;;6.50;99.90;;;6.97;100.00;-20871.88;5130894;27;20461;-72
2021/05/29 02:31:05;;;;;;;0.70;0.70;;;6.40;99.90;;;7.07;100.00;-20874.53;5127858;27;20436;-72
2021/05/29 02:33:34;;;;;;;0.70;0.60;;;6.50;99.90;;;7.05;100.00;-20873.97;5136220;27;20512;-72
2021/05/29 02:36:02;;;;;;;0.70;0.60;;;6.60;99.90;;;7.08;100.00;-20874.94;5131816;27;20485;-72
2021/05/29 02:38:33;;;;;;;0.70;0.60;;;6.60;99.90;;;7.14;100.00;-20876.59;5133462;27;21046;-72
2021/05/29 02:41:06;;;;;;;0.70;0.60;;;6.70;99.90;;;7.08;100.00;-20874.94;5136434;27;20431;-72
2021/05/29 02:43:34;;;;;;;0.70;0.60;;;6.60;99.90;;;7.05;100.00;-20873.97;5118119;27;20428;-73
2021/05/29 02:46:01;;;;;;;0.70;0.60;;;6.60;99.90;;;6.93;100.00;-20870.78;5133577;27;20436;-72
2021/05/29 02:48:29;;;;;;;0.70;0.60;;;6.50;99.90;;;6.91;100.00;-20870.22;5133989;27;20493;-72
2021/05/29 02:50:57;;;;;;;0.70;0.60;;;6.40;99.90;;;6.84;100.00;-20868.28;5135966;27;20425;-71
2021/05/29 02:53:24;;;;;;;0.70;0.57;;;6.30;99.90;;;6.82;100.00;-20867.72;5134224;27;20472;-71
2021/05/29 02:55:53;;;;;;;0.70;0.60;;;6.30;99.90;;;6.84;100.00;-20868.41;5135364;27;20411;-72
2021/05/29 02:58:21;;;;;;;0.70;0.60;;;6.30;99.90;;;6.81;100.00;-20867.44;5134836;27;20526;-72
2021/05/29 03:00:49;;;;;;;0.70;0.60;;;6.30;99.90;;;6.81;100.00;-20867.44;5130792;27;20440;-72
2021/05/29 03:03:18;;;;;;;0.70;0.60;;;6.30;99.90;;;6.87;100.00;-20869.09;5134325;27;20444;-72
2021/05/29 03:05:48;;;;;;;0.70;0.60;;;6.40;99.90;;;6.89;100.00;-20869.66;5135728;27;20451;-72
2021/05/29 03:08:19;;;;;;;0.70;0.60;;;6.40;99.90;;;6.84;100.00;-20868.28;5134301;27;20952;-74
2021/05/29 03:10:49;;;;;;;0.70;0.60;;;6.40;99.90;;;6.78;100.00;-20866.88;5117430;27;20435;-72
2021/05/29 03:13:18;;;;;;;0.70;0.60;;;6.30;99.90;;;6.73;100.00;-20865.50;5136036;27;20459;-73
2021/05/29 03:15:48;;;;;;;0.70;0.60;;;6.30;99.90;;;6.70;100.00;-20864.66;5133048;27;20842;-71
2021/05/29 03:18:16;;;;;;;0.70;0.60;;;6.30;99.90;;;6.61;100.00;-20862.16;5135583;27;20477;-72
2021/05/29 03:20:43;;;;;;;0.70;0.60;;;6.10;99.90;;;6.58;100.00;-20861.31;5135557;27;20507;-72
2021/05/29 03:23:11;;;;;;;0.70;0.60;;;6.10;99.90;;;6.57;100.00;-20861.03;5133804;27;20246;-72
2021/05/29 03:25:38;;;;;;;0.70;0.60;;;6.10;99.90;;;6.52;100.00;-20859.66;5135403;27;20190;-72
2021/05/29 03:28:06;;;;;;;0.70;0.60;;;6.00;99.90;;;6.51;100.00;-20859.38;5135138;27;20191;-72
2021/05/29 03:30:34;;;;;;;0.70;0.60;;;6.00;99.90;;;6.46;100.00;-20858.00;5121283;27;20463;-72
2021/05/29 03:33:03;;;;;;;0.70;0.60;;;6.00;99.90;;;6.45;100.00;-20857.72;5117020;27;20215;-72
2021/05/29 03:35:30;;;;;;;0.70;0.60;;;6.00;99.90;;;6.44;100.00;-20857.56;5132868;27;20459;-72
2021/05/29 03:37:58;;;;;;;0.70;0.70;;;6.00;99.90;;;6.47;100.00;-20858.25;5133404;27;20526;-72
2021/05/29 03:40:26;;;;;;;0.70;0.60;;;6.00;99.90;;;6.51;100.00;-20859.38;5130125;27;20281;-72
2021/05/29 03:42:54;;;;;;;0.70;0.60;;;6.00;99.90;;;6.56;100.00;-20860.78;5096703;28;20478;-72
2021/05/29 03:45:23;;;;;;;0.70;0.60;;;6.10;99.90;;;6.53;100.00;-20859.94;5115300;27;20190;-72
2021/05/29 03:47:51;;;;;;;0.70;0.60;;;6.10;99.90;;;6.55;100.00;-20860.47;5114579;27;20500;-72
2021/05/29 03:50:22;;;;;;;0.70;0.60;;;6.10;99.90;;;6.51;100.00;-20859.50;5113323;28;20278;-72
2021/05/29 03:52:50;;;;;;;0.70;0.60;;;6.00;99.90;;;6.51;100.00;-20859.38;5114427;28;20475;-72
2021/05/29 03:55:20;;;;;;;0.70;0.60;;;6.00;99.90;;;6.53;100.00;-20859.94;5096550;28;21008;-72
2021/05/29 03:57:49;;;;;;;0.70;0.52;;;6.10;99.90;;;6.56;100.00;-20860.78;5124115;27;20797;-72
2021/05/29 04:00:20;;;;;;;0.70;0.60;;;6.10;99.90;;;6.63;100.00;-20862.56;5129932;27;20231;-72
2021/05/29 04:02:48;;;;;;;0.70;0.60;;;6.10;99.90;;;6.60;100.00;-20861.88;5113728;28;20179;-73
2021/05/29 04:05:16;;;;;;;0.70;0.60;;;6.00;99.90;;;6.58;100.00;-20861.31;5113249;28;20460;-72
2021/05/29 04:07:45;;;;;;;0.70;0.60;;;6.00;99.90;;;6.59;100.00;-20861.59;5112524;28;20510;-72
2021/05/29 04:10:16;;;;;;;0.70;0.60;;;6.00;99.90;;;6.63;100.00;-20862.72;5130733;27;20854;-72
2021/05/29 04:12:44;;;;;;;0.70;0.60;;;6.10;99.90;;;6.63;100.00;-20862.72;5122604;27;20469;-72
2021/05/29 04:15:13;;;;;;;0.70;0.60;;;6.10;99.90;;;6.68;100.00;-20864.09;5113002;28;20423;-72
2021/05/29 04:17:42;;;;;;;0.70;0.60;;;6.10;99.90;;;6.69;100.00;-20864.25;5129298;27;20471;-72
2021/05/29 04:20:13;;;;;;;0.70;0.60;;;6.20;99.90;;;6.74;100.00;-20865.63;5132231;27;20463;-72
2021/05/29 04:22:41;;;;;;;0.70;0.60;;;6.20;99.90;;;6.81;100.00;-20867.44;5132930;27;20492;-72
2021/05/29 04:25:14;;;;;;;0.70;0.70;;;6.20;99.90;;;6.85;100.00;-20868.69;5133814;27;20494;-71
2021/05/29 04:27:42;;;;;;;0.70;0.60;;;6.30;99.90;;;6.90;100.00;-20869.94;5115432;27;20443;-72
2021/05/29 04:30:14;;;;;;;0.70;0.60;;;6.40;99.90;;;6.93;100.00;-20870.78;5131037;27;20436;-71
2021/05/29 04:32:41;;;;;;;0.70;0.60;;;6.40;99.90;;;6.94;100.00;-20871.06;5123482;27;20519;-71
2021/05/29 04:35:11;;;;;;;0.80;0.70;;;6.40;99.90;;;6.98;100.00;-20872.16;5132961;27;20429;-73
2021/05/29 04:37:39;;;;;;;0.70;0.60;;;6.40;99.90;;;7.03;100.00;-20873.53;5134525;27;20436;-71
2021/05/29 04:40:10;;;;;;;0.70;0.60;;;6.50;99.90;;;7.07;100.00;-20874.66;5128487;27;20782;-72
2021/05/29 04:42:39;;;;;;;0.70;0.60;;;6.60;99.90;;;7.12;100.00;-20876.06;5113724;28;20886;-72
2021/05/29 04:45:11;;;;;;;0.70;0.60;;;6.60;99.90;;;7.18;100.00;-20877.72;5112720;28;20772;-71
2021/05/29 04:47:39;;;;;;;0.70;0.60;;;6.60;99.90;;;7.23;100.00;-20879.09;5113958;28;20417;-71
2021/05/29 04:50:09;;;;;;;0.70;0.60;;;6.70;99.90;;;7.33;100.00;-20881.59;5129292;28;20465;-72
2021/05/29 04:52:37;;;;;;;0.70;0.60;;;6.80;99.90;;;7.42;100.00;-20884.09;5134093;27;20464;-71
2021/05/29 04:55:07;;;;;;;0.70;0.53;;;6.90;99.90;;;7.49;100.00;-20886.03;5133328;27;20795;-71
2021/05/29 04:57:36;;;;;;;0.70;0.60;;;7.00;99.90;;;7.54;100.00;-20887.28;5133291;28;20446;-71
2021/05/29 05:00:07;;;;;;;0.70;0.60;;;7.00;99.90;;;7.61;100.00;-20889.38;5132127;27;20427;-71
2021/05/29 05:02:34;;;;;;;0.70;0.60;;;7.10;99.90;;;7.72;100.00;-20892.44;5132343;28;20439;-73
2021/05/29 05:05:02;;;;;;;0.70;0.60;;;7.20;99.90;;;7.85;100.00;-20895.91;5115112;28;20428;-71
2021/05/29 05:07:30;;;;;;;0.70;0.60;;;7.30;99.90;;;8.07;100.00;-20901.88;5133753;28;20429;-72
2021/05/29 05:09:58;;;;;;;0.70;0.60;;;7.50;99.90;;;8.23;100.00;-20906.31;5131804;28;20432;-72
2021/05/29 05:12:25;;;;;;;0.70;0.60;;;7.60;99.90;;;8.41;100.00;-20911.03;5132925;28;20951;-71
2021/05/29 05:14:54;;;;;;;0.70;0.60;;;7.80;99.90;;;8.66;100.00;-20917.81;5133869;28;20938;-73
2021/05/29 05:17:26;;;;;;;0.70;0.60;;;8.00;99.90;;;8.80;100.00;-20921.56;5132031;28;20490;-71
2021/05/29 05:19:53;;;;;;;0.70;0.60;;;8.20;99.90;;;8.87;100.00;-20923.50;5134419;27;20493;-71
2021/05/29 05:22:20;;;;;;;0.70;0.60;;;8.20;99.90;;;8.97;100.00;-20926.28;5134937;27;20435;-71
2021/05/29 05:24:48;;;;;;;0.70;0.60;;;8.30;99.90;;;9.07;100.00;-20929.06;5118817;27;20802;-70
2021/05/29 05:27:16;;;;;;;0.70;0.60;;;8.40;99.90;;;9.34;100.00;-20936.41;5127370;27;20433;-70
2021/05/29 05:29:43;;;;;;;0.70;0.60;;;8.60;99.90;;;9.55;100.00;-20942.06;5131046;27;20473;-72
2021/05/29 05:32:11;;;;;;;0.70;0.60;;;8.80;99.90;;;9.82;100.00;-20949.28;5136455;27;20502;-71
2021/05/29 05:34:39;;;;;;;0.70;0.60;;;9.10;99.90;;;10.02;100.00;-20954.81;5137366;27;20413;-71
2021/05/29 05:37:07;;;;;;;0.70;0.60;;;9.30;99.90;;;10.15;100.00;-20958.41;5136445;27;20486;-71
2021/05/29 05:39:35;;;;;;;0.70;0.70;;;9.50;99.90;;;10.32;100.00;-20962.84;5135754;27;20508;-72
2021/05/29 05:42:04;;;;;;;0.70;0.70;;;9.70;99.90;;;10.46;100.00;-20966.72;5136042;27;20924;-71
2021/05/29 05:44:32;;;;;;;0.70;0.60;;;9.80;99.90;;;10.68;100.00;-20972.53;5136615;27;20420;-73
2021/05/29 05:47:00;;;;;;;0.70;0.60;;;9.90;99.90;;;10.88;100.00;-20978.06;5118486;27;20444;-71
2021/05/29 05:49:29;;;;;;;0.70;0.60;;;10.30;99.90;;;11.05;100.00;-20982.75;5130335;27;20444;-72
2021/05/29 05:51:56;;;;;;;0.70;0.70;;;10.40;99.90;;;11.20;100.00;-20986.63;5134040;27;20423;-71
2021/05/29 05:54:25;;;;;;;0.70;0.70;;;10.60;99.90;;;11.35;100.00;-20990.78;5136339;27;20469;-73
2021/05/29 05:56:53;;;;;;;0.70;0.67;;;10.80;99.90;;;11.51;100.00;-20995.06;5136470;27;20845;-71
2021/05/29 05:59:20;;;;;;;0.70;0.60;;;11.00;99.90;;;11.59;100.00;-20997.41;5137163;27;20477;-72
2021/05/29 06:01:48;;;;;;;0.70;0.60;;;11.10;99.90;;;11.73;100.00;-21001.00;5119962;27;20444;-71
2021/05/29 06:04:17;;;;;;;0.70;0.70;;;11.20;99.90;;;11.91;100.00;-21005.84;5115608;27;20489;-72
2021/05/29 06:06:47;;;;;;;0.70;0.67;;;11.40;99.90;;;12.07;100.00;-21010.41;5135890;27;20534;-72
2021/05/29 06:09:15;;;;;;;0.70;0.60;;;11.50;99.90;;;12.22;100.00;-21014.25;5136753;27;20859;-73
2021/05/29 06:11:44;;;;;;;0.70;0.60;;;11.70;99.90;;;12.38;100.00;-21018.69;5131552;27;20446;-72
2021/05/29 06:19:49;;;;;;;0.70;0.60;;;12.10;99.90;;;12.78;100.00;-21029.44;5136588;27;20433;-73
2021/05/29 06:22:17;;;;;;;0.70;0.60;;;12.20;99.90;;;12.87;100.00;-21031.78;5135528;27;20944;-72
2021/05/29 06:24:45;;;;;;;0.77;0.70;;;12.30;99.90;;;12.96;100.00;-20926.94;5135633;27;20457;-71
2021/05/29 06:27:12;;;;;;;0.70;0.60;;;12.40;99.90;;;13.07;100.00;-19586.84;5136597;27;20465;-71
2021/05/29 06:29:40;;;;;;;0.70;0.70;;;12.60;99.90;;;13.08;100.00;-17548.91;5133842;27;20429;-73
2021/05/29 06:32:08;;;;;;;0.70;0.70;;;12.50;99.90;;;13.28;100.00;-14870.50;5134244;27;20429;-71
2021/05/29 06:34:36;;;;;;;0.70;0.67;;;12.70;99.90;;;13.44;100.00;-12730.06;5132615;27;20476;-71
2021/05/29 06:37:04;;;;;;;0.70;0.63;;;12.80;99.90;;;13.51;100.00;-12715.91;5105563;27;20499;-73
2021/05/29 06:39:32;;;;;;;0.70;0.60;;;12.90;99.90;;;13.61;100.00;-14745.09;5135574;27;20452;-73
2021/05/29 06:42:00;;;;;;;0.70;0.60;;;13.00;99.90;;;13.73;100.00;-19749.16;5135115;27;20408;-74
2021/05/29 06:44:28;;;;;;;0.70;0.60;;;13.30;99.90;;;13.88;100.00;-21059.22;5115929;28;20424;-71
2021/05/29 06:46:55;;;;;;;0.80;0.70;;;13.40;99.90;;;14.16;100.00;-21066.66;5121615;27;20428;-71
2021/05/29 06:49:23;;;;;;;0.70;0.60;;;13.50;99.90;;;14.18;100.00;-21067.34;5133992;27;20436;-71
2021/05/29 06:52:00;;;;;;;0.80;0.70;;;13.70;99.90;;;14.22;100.00;-21068.31;5135275;27;20854;-73
2021/05/29 06:59:42;;;;;;;0.70;0.60;;;14.10;99.90;;;14.80;100.00;-21083.88;5134938;27;20824;-72
2021/05/29 07:02:10;;;;;;;0.70;0.60;;;14.20;99.90;;;14.89;100.00;-21086.50;5135848;27;20428;-74
2021/05/29 07:04:37;;;;;;;0.70;0.60;;;14.10;99.90;;;15.09;100.00;-21091.84;5128112;27;20924;-73
2021/05/29 07:07:05;;;;;;;0.70;0.60;;;14.20;99.90;;;15.05;100.00;-21090.75;5115184;28;20410;-72
2021/05/29 07:09:33;;;;;;;0.70;0.60;;;14.40;99.90;;;15.18;100.00;-21094.19;5103047;27;20565;-72
2021/05/29 07:12:02;;;;;;;0.70;0.60;;;14.70;99.90;;;15.42;100.00;-21100.78;5135456;27;20471;-72
2021/05/29 07:14:30;;;;;;;0.80;0.70;;;15.00;99.90;;;15.58;100.00;-21104.91;5133724;27;20954;-72
2021/05/29 07:17:00;;;;;;;0.70;0.67;;;15.10;99.90;;;15.56;100.00;-21104.50;5134456;27;20426;-72
2021/05/29 07:19:27;;;;;;;0.70;0.60;;;15.20;99.90;;;15.77;100.00;-21110.00;5120080;27;20463;-72
2021/05/29 07:21:55;;;;;;;0.70;0.60;;;15.30;99.90;;;15.80;100.00;-21110.97;5114854;28;20408;-73
2021/05/29 07:24:24;;;;;;;0.80;0.70;;;15.40;99.90;;;16.28;100.00;-21123.88;5123731;27;20512;-72
2021/05/29 07:26:52;;;;;;;0.70;0.67;;;15.40;99.90;;;16.36;100.00;-21126.06;5126430;27;20434;-72
2021/05/29 07:29:21;;;;;;;0.70;0.60;;;15.30;99.90;;;16.51;100.00;-21129.91;5134365;27;20890;-72
2021/05/29 07:31:49;;;;;;;0.70;0.60;;;15.40;99.90;;;16.50;100.00;-21129.66;5133299;27;20761;-72
2021/05/29 07:34:17;;;;;;;0.70;0.60;;;15.50;99.90;;;16.54;100.00;-21130.88;5124795;27;20983;-72
2021/05/29 07:36:45;;;;;;;0.80;0.70;;;15.70;99.90;;;16.77;100.00;-21137.06;5120912;27;20459;-72
2021/05/29 07:39:13;;;;;;;0.80;0.70;;;15.90;99.90;;;16.93;100.00;-21141.19;5133551;27;20448;-72
2021/05/29 07:41:40;;;;;;;0.77;0.67;;;16.00;99.90;;;16.97;100.00;-21142.28;5132801;27;20514;-72
2021/05/29 07:44:08;;;;;;;0.93;0.83;;;16.20;99.90;;;17.32;100.00;-21151.88;5134392;27;20416;-72
2021/05/29 07:46:37;;;;;;;0.70;0.60;;;16.50;99.90;;;17.33;100.00;-21152.16;5116178;27;20428;-72
2021/05/29 07:49:05;;;;;;;0.80;0.70;;;16.70;99.90;;;17.60;100.00;-21159.28;5131719;27;20955;-72
2021/05/29 07:51:37;;;;;;;0.70;0.60;;;16.80;99.90;;;17.75;100.00;-21163.41;5133334;27;20472;-72
2021/05/29 07:54:07;;;;;;;0.70;0.70;;;16.90;99.90;;;18.14;100.00;-21173.81;5113131;27;20559;-72
2021/05/29 07:56:35;;;;;;;0.70;0.70;;;17.00;99.90;;;18.35;100.00;-21179.56;5114491;28;20414;-74
2021/05/29 07:59:16;;;;;;;0.80;0.73;;;17.20;99.90;;;18.66;100.00;-21187.63;5112702;28;20482;-72
2021/05/29 08:01:45;;;;;;;0.70;0.70;;;17.10;99.90;;;18.59;100.00;-21185.84;5130615;27;20816;-72
2021/05/29 08:04:14;;;;;;;0.80;0.70;;;17.40;99.90;;;18.47;100.00;-21182.72;5130045;27;20440;-73
2021/05/29 08:06:42;;;;;;;0.80;0.70;;;17.80;99.90;;;19.18;100.00;-21201.72;5134482;27;20456;-73
2021/05/29 08:09:09;;;;;;;0.70;0.60;;;17.90;99.90;;;19.39;100.00;-21207.22;5132993;27;20809;-72
2021/05/29 08:11:39;;;;;;;0.70;0.60;;;17.90;99.90;;;19.54;100.00;-21211.31;5116829;27;20398;-72
2021/05/29 08:14:09;;;;;;;0.77;0.70;;;18.00;99.90;;;19.77;100.00;-21217.59;5144961;27;20438;-73
2021/05/29 08:16:39;;;;;;;0.80;0.60;;;18.20;99.90;;;19.56;100.00;-21211.84;5133655;27;20455;-73
2021/05/29 08:19:11;;;;;;;0.80;0.63;;;18.20;99.90;;;19.62;100.00;-21213.50;5128410;27;20917;-72
2021/05/29 08:21:41;;;;;;;0.80;0.60;;;18.40;99.90;;;20.02;100.00;-21224.16;5113828;28;20786;-73
2021/05/29 08:24:09;;;;;;;0.80;0.60;;;18.50;99.90;;;20.61;100.00;-21240.00;5121044;27;20452;-74
2021/05/29 08:26:38;;;;;;;0.80;0.70;;;18.70;99.90;;;21.04;100.00;-21251.47;5133377;27;20436;-72
2021/05/29 08:29:07;;;;;;;0.70;0.60;;;18.70;99.90;;;21.02;100.00;-21250.91;5116458;27;20530;-73
2021/05/29 08:31:35;;;;;;;0.70;0.50;;;19.20;99.90;;;22.09;100.00;-21279.56;5132580;27;20502;-74
2021/05/29 08:34:04;;;;;;;0.70;0.60;;;19.00;99.90;;;22.63;100.00;-21293.84;5134250;27;20448;-72
2021/05/29 08:36:32;;;;;;;0.73;0.60;;;19.20;99.90;;;23.09;100.00;-21306.09;5134423;27;21064;-73
2021/05/29 08:39:04;;;;;;;0.70;0.50;;;19.30;97.30;;;23.05;100.00;-21305.16;5131522;27;20501;-72
2021/05/29 08:41:32;;;;;;;0.70;0.50;;;19.20;85.60;;;23.24;100.00;-21310.06;5132706;27;20431;-79
2021/05/29 08:43:59;;;;;;;0.70;0.60;;;19.70;80.10;;;23.25;100.00;-21310.31;5116010;27;20494;-76
2021/05/29 08:46:27;;;;;;;0.70;0.50;;;20.00;64.30;;;24.28;100.00;-21337.78;5132316;28;20776;-72
2021/05/29 08:48:55;;;;;;;0.70;0.50;;;20.00;57.80;;;24.53;100.00;-21344.44;5117830;27;20434;-72
2021/05/29 08:51:23;;;;;;;0.70;0.60;;;20.10;57.60;;;24.94;100.00;-21355.41;5111143;28;20508;-75
2021/05/29 08:53:57;;;;;;;0.90;0.77;;;20.20;56.90;;;25.00;100.00;-21357.06;5116738;27;20991;-75
2021/05/29 08:56:27;;;;;;;0.70;0.50;;;20.30;53.90;;;24.94;100.00;-21355.28;5117205;27;20789;-72
2021/05/29 08:58:56;;;;;;;0.70;0.50;;;20.90;53.20;;;25.87;100.00;-21380.09;5135177;27;20427;-73
2021/05/29 09:01:25;;;;;;;0.70;0.50;;;20.80;50.90;;;25.71;100.00;-21375.91;5136694;27;20459;-72
2021/05/29 09:03:56;;;;;;;0.70;0.50;;;20.80;50.40;;;26.17;100.00;-21388.09;5138842;27;20452;-72
2021/05/29 09:06:41;;;;;;;0.70;0.50;;;20.90;49.40;;;23.83;100.00;-21325.97;5137292;27;20420;-74
2021/05/29 09:09:11;;;;;;;0.70;0.50;;;20.90;51.30;;;23.47;100.00;-21316.31;5120612;27;20466;-74
2021/05/29 09:11:48;;;;;;;0.70;0.50;;;21.20;52.00;;;25.13;100.00;-21360.44;5139303;27;20405;-74
2021/05/29 09:14:38;;;;;;;0.70;0.50;;;21.00;48.20;;;24.76;100.00;-21350.53;5120766;27;20509;-75
2021/05/29 09:17:18;;;;;;;0.70;0.57;;;21.10;49.80;;;25.55;100.00;-21371.56;5119424;27;20925;-74
2021/05/29 09:20:10;;;;;;;0.70;0.50;;;20.90;49.00;;;25.72;100.00;-21376.16;5122262;27;20872;-74
2021/05/29 09:22:41;;;;;;;0.70;0.50;;;21.50;51.00;;;26.61;100.00;-21399.59;5137552;27;20431;-75
2021/05/29 09:25:17;;;;;;;0.70;0.50;;;21.80;44.70;;;24.77;100.00;-21350.81;5134325;27;20482;-77
2021/05/29 09:27:55;;;;;;;0.70;0.50;;;20.60;51.80;;;23.56;100.00;-21318.75;5117029;28;20409;-74
2021/05/29 09:30:43;;;;;;;0.70;0.50;;;19.70;50.10;;;23.44;100.00;-21315.50;5121154;27;20440;-75
2021/05/29 09:33:17;;;;;;;0.70;0.50;;;19.00;51.40;;;24.30;100.00;-21338.31;5137967;27;20447;-74
2021/05/29 09:35:57;;;;;;;0.70;0.50;;;19.70;51.90;;;25.53;100.00;-21371.16;5137776;27;20431;-75
2021/05/29 09:38:32;;;;;;;0.70;0.60;;;20.70;50.00;;;25.82;100.00;-21378.59;5119119;27;20982;-75
2021/05/29 09:41:02;;;;;;;0.70;0.50;;;20.70;46.20;;;23.99;100.00;-21330.16;5138225;27;20404;-75
2021/05/29 09:43:50;;;;;;;0.70;0.50;;;19.80;47.00;;;22.10;100.00;-21279.81;5119026;27;20497;-74
2021/05/29 09:46:18;;;;;;;0.70;0.57;;;19.10;48.30;;;20.04;100.00;-21224.72;5137890;27;20436;-74
2021/05/29 09:48:58;;;;;;;0.70;0.57;;;18.80;53.60;;;22.35;100.00;-21286.38;5137671;27;20424;-74
2021/05/29 09:51:27;;;;;;;1.00;0.70;;;20.10;50.80;;;24.67;100.00;-21348.09;5135721;27;20423;-74
2021/05/29 09:53:56;;;;;;;0.70;0.50;;;21.40;48.20;;;24.49;100.00;-21343.34;5134627;27;20550;-74
2021/05/29 09:56:27;;;;;;;0.70;0.50;;;21.00;46.10;;;24.67;100.00;-21348.09;5130192;27;20443;-75
2021/05/29 09:58:59;;;;;;;0.70;0.60;;;20.50;46.30;;;25.89;100.00;-21380.63;5136585;27;20420;-75
2021/05/29 10:01:44;;;;;;;0.70;0.50;;;20.80;44.70;;;24.60;100.00;-21346.34;5135489;27;20443;-74
2021/05/29 10:07:05;;;;;;;0.70;0.50;;;20.90;44.30;;;23.76;100.00;-21323.91;5138148;27;20413;-73
2021/05/29 10:09:33;;;;;;;0.70;0.50;;;21.10;44.00;;;23.73;100.00;-21323.09;5135922;27;20448;-73
2021/05/29 10:12:04;;;;;;;0.70;0.50;;;21.00;47.70;;;26.13;100.00;-21386.88;5135942;27;20439;-73
2021/05/29 10:14:34;;;;;;;0.70;0.50;;;21.30;41.60;;;27.15;100.00;-21414.06;5132938;27;20464;-74
2021/05/29 10:17:05;;;;;;;0.70;0.50;;;21.50;36.80;;;25.62;100.00;-21373.44;5135114;27;20456;-73
2021/05/29 10:19:33;;;;;;;0.70;0.50;;;22.40;36.30;;;26.73;100.00;-21402.97;5119797;27;20440;-72
2021/05/29 10:22:05;;;;;;;0.70;0.50;;;21.80;32.90;;;27.32;100.00;-21418.53;5116449;28;20508;-74
2021/05/29 10:24:33;;;;;;;0.70;0.50;;;22.40;35.60;;;25.19;100.00;-21361.94;5131973;27;20453;-73
2021/05/29 10:27:09;;;;;;;0.70;0.50;;;22.40;35.30;;;26.65;100.00;-21400.69;5118294;27;20406;-73
2021/05/29 10:29:38;;;;;;;0.70;0.50;;;22.60;34.00;;;25.44;100.00;-21368.72;5136755;27;20432;-73
2021/05/29 10:32:16;;;;;;;0.70;0.50;;;21.70;37.00;;;24.74;100.00;-21350.13;5117988;27;20830;-73
2021/05/29 10:35:04;;;;;;;0.70;0.50;;;20.70;40.60;;;23.05;100.00;-21305.16;5115597;28;20540;-73
2021/05/29 10:37:37;;;;;;;0.70;0.50;;;19.70;43.50;;;21.52;100.00;-21264.16;5134656;27;20432;-74
2021/05/29 10:40:23;;;;;;;0.70;0.50;;;19.80;53.20;;;20.98;100.00;-21249.84;5134361;27;20433;-72